createdAt,value
2019-06-08T00:00:02.692Z,53.29
2019-06-08T00:05:07.827Z,53.28
2019-06-08T00:10:12.700Z,53.33
2019-06-08T00:15:16.299Z,52.70
2019-06-08T00:20:19.850Z,52.75
2019-06-08T00:25:24.220Z,53.03
2019-06-08T00:30:28.831Z,53.21
2019-06-08T00:35:32.739Z,52.83
2019-06-08T00:40:36.134Z,52.75
2019-06-08T00:45:39.599Z,53.07
2019-06-08T00:50:43.241Z,53.59
2019-06-08T00:55:46.637Z,53.46
2019-06-08T01:00:50.429Z,53.44
2019-06-08T01:05:53.817Z,53.00
2019-06-08T01:10:57.218Z,52.95
2019-06-08T01:16:00.617Z,53.05
2019-06-08T01:21:04.278Z,53.01
2019-06-08T01:26:07.667Z,53.82
2019-06-08T01:31:11.324Z,53.51
2019-06-08T01:36:14.715Z,53.06
2019-06-08T01:41:18.455Z,53.28
2019-06-08T01:46:21.969Z,53.12
2019-06-08T01:51:26.501Z,53.06
2019-06-08T01:56:31.218Z,53.00
2019-06-08T02:01:34.805Z,53.09
2019-06-08T02:06:38.229Z,53.42
2019-06-08T02:11:41.621Z,53.22
2019-06-08T02:16:45.019Z,53.17
2019-06-08T02:21:48.430Z,52.91
2019-06-08T02:26:51.877Z,52.47
2019-06-08T02:31:55.291Z,52.29
2019-06-08T02:36:58.715Z,52.20
2019-06-08T02:42:02.122Z,52.20
2019-06-08T02:47:06.027Z,52.44
2019-06-08T02:52:10.482Z,52.66
2019-06-08T02:57:15.050Z,52.75
2019-06-08T03:02:20.494Z,52.78
2019-06-08T03:07:25.144Z,52.94
2019-06-08T03:12:28.570Z,52.70
2019-06-08T03:17:33.383Z,52.79
2019-06-08T03:22:40.791Z,53.02
2019-06-08T03:27:43.188Z,53.05
2019-06-08T03:32:55.610Z,52.29
2019-06-08T03:37:52.790Z,51.99
2019-06-08T03:42:58.007Z,51.64
2019-06-08T03:48:01.475Z,51.71
2019-06-08T03:53:05.034Z,51.34
2019-06-08T03:58:10.398Z,51.12
2019-06-08T04:03:13.546Z,50.50
2019-06-08T04:08:16.936Z,50.62
2019-06-08T04:13:20.355Z,50.46
2019-06-08T04:18:23.757Z,50.58
2019-06-08T04:23:27.171Z,50.38
2019-06-08T04:28:30.563Z,50.23
2019-06-08T04:33:33.990Z,50.24
2019-06-08T04:38:38.923Z,50.05
2019-06-08T04:43:43.054Z,49.96
2019-06-08T04:48:49.856Z,50.44
2019-06-08T04:53:52.705Z,50.47
2019-06-08T04:58:56.096Z,50.63
2019-06-08T05:03:59.498Z,50.49
2019-06-08T05:09:03.359Z,50.63
2019-06-08T05:14:06.813Z,50.80
2019-06-08T05:19:10.226Z,50.91
2019-06-08T05:24:13.982Z,50.95
2019-06-08T05:29:17.378Z,51.34
2019-06-08T05:34:20.874Z,51.19
2019-06-08T05:39:24.284Z,51.19
2019-06-08T05:44:27.748Z,51.20
2019-06-08T05:49:31.149Z,51.14
2019-06-08T05:54:34.545Z,50.63
2019-06-08T05:59:37.933Z,51.05
2019-06-08T06:04:42.459Z,50.94
2019-06-08T06:09:46.950Z,50.92
2019-06-08T06:14:51.285Z,49.79
2019-06-08T06:19:54.827Z,50.12
2019-06-08T06:24:58.220Z,50.59
2019-06-08T06:30:02.230Z,50.22
2019-06-08T06:35:06.682Z,50.33
2019-06-08T06:40:10.718Z,49.51
2019-06-08T06:45:14.916Z,48.85
2019-06-08T06:50:18.636Z,49.22
2019-06-08T06:55:25.223Z,48.72
2019-06-08T07:00:32.561Z,48.23
2019-06-08T07:05:36.017Z,48.51
2019-06-08T07:10:39.409Z,48.63
2019-06-08T07:15:42.822Z,47.57
2019-06-08T07:20:46.274Z,48.00
2019-06-08T07:25:50.423Z,48.39
2019-06-08T07:30:54.872Z,47.84
2019-06-08T07:35:59.879Z,47.95
2019-06-08T07:41:03.404Z,47.41
2019-06-08T07:46:07.100Z,47.09
2019-06-08T07:51:10.491Z,47.48
2019-06-08T07:56:13.880Z,47.11
2019-06-08T08:01:17.269Z,46.41
2019-06-08T08:06:20.662Z,47.21
2019-06-08T08:11:24.422Z,46.73
2019-06-08T08:16:27.812Z,46.87
2019-06-08T08:21:31.208Z,46.79
2019-06-08T08:26:34.866Z,46.24
2019-06-08T08:31:38.270Z,46.93
2019-06-08T08:36:41.913Z,45.12
2019-06-08T08:41:45.304Z,45.56
2019-06-08T08:46:50.190Z,45.68
2019-06-08T08:51:54.093Z,45.53
2019-06-08T08:57:01.795Z,46.15
2019-06-08T09:02:03.148Z,46.05
2019-06-08T09:07:09.998Z,46.76
2019-06-08T09:12:11.785Z,47.57
2019-06-08T09:17:17.900Z,45.48
2019-06-08T09:22:20.421Z,45.11
2019-06-08T09:27:23.801Z,44.53
2019-06-08T09:32:28.186Z,45.70
2019-06-08T09:43:34.875Z,45.39
2019-06-08T09:48:38.356Z,45.17
2019-06-08T09:53:41.993Z,44.12
2019-06-08T09:58:45.657Z,44.54
2019-06-08T10:03:49.050Z,44.69
2019-06-08T10:08:52.452Z,41.74
2019-06-08T10:13:59.456Z,42.66
2019-06-08T10:19:03.897Z,42.41
2019-06-08T10:24:09.105Z,40.16
2019-06-08T10:29:11.245Z,40.62
2019-06-08T10:34:14.883Z,41.07
2019-06-08T10:39:18.517Z,40.86
2019-06-08T10:44:21.901Z,38.43
2019-06-08T10:49:28.430Z,38.79
2019-06-08T10:54:30.655Z,39.17
2019-06-08T10:59:36.582Z,38.18
2019-06-08T11:04:43.191Z,37.46
2019-06-08T11:09:44.372Z,37.12
2019-06-08T11:14:48.175Z,39.81
2019-06-08T11:19:51.628Z,39.79
2019-06-08T11:24:55.033Z,38.55
2019-06-08T11:29:59.585Z,37.87
2019-06-08T11:35:06.491Z,37.72
2019-06-08T11:40:12.884Z,37.21
2019-06-08T11:45:17.725Z,37.53
2019-06-08T11:50:41.791Z,39.36
2019-06-08T11:55:44.251Z,40.06
2019-06-08T12:01:05.480Z,37.15
2019-06-08T12:06:12.327Z,35.75
2019-06-08T12:11:18.817Z,35.59
2019-06-08T12:16:22.303Z,35.66
2019-06-08T12:21:27.253Z,36.03
2019-06-08T12:26:30.188Z,37.50
2019-06-08T12:31:33.818Z,37.41
2019-06-08T12:36:37.609Z,34.44
2019-06-08T12:41:40.975Z,36.76
2019-06-08T12:46:44.375Z,34.29
2019-06-08T12:51:50.670Z,34.96
2019-06-08T12:56:52.901Z,34.20
2019-06-08T13:01:58.528Z,33.64
2019-06-08T13:07:01.672Z,33.88
2019-06-08T13:12:07.738Z,34.43
2019-06-08T13:17:11.538Z,31.74
2019-06-08T13:22:15.285Z,31.84
2019-06-08T13:27:21.520Z,32.42
2019-06-08T13:32:23.817Z,33.43
2019-06-08T13:37:27.608Z,31.96
2019-06-08T13:42:31.042Z,31.58
2019-06-08T13:47:38.140Z,31.89
2019-06-08T13:52:39.805Z,32.30
2019-06-08T13:57:43.468Z,32.07
2019-06-08T14:02:48.492Z,31.60
2019-06-08T14:07:51.933Z,30.61
2019-06-08T14:12:55.382Z,30.74
2019-06-08T14:17:58.792Z,31.42
2019-06-08T14:23:02.250Z,30.42
2019-06-08T14:28:05.752Z,29.42
2019-06-08T14:33:09.144Z,29.62
2019-06-08T14:38:12.557Z,29.10
2019-06-08T14:43:17.631Z,28.11
2019-06-08T14:48:24.111Z,27.62
2019-06-08T14:53:26.846Z,27.55
2019-06-08T14:58:34.572Z,27.49
2019-06-08T15:03:37.715Z,28.29
2019-06-08T15:08:40.627Z,26.98
2019-06-08T15:13:44.028Z,27.61
2019-06-08T15:18:47.724Z,26.61
2019-06-08T15:23:51.120Z,27.00
2019-06-08T15:28:54.512Z,26.51
2019-06-08T15:34:00.683Z,28.07
2019-06-08T15:39:03.293Z,27.73
2019-06-08T15:44:06.684Z,28.66
2019-06-08T15:49:11.061Z,27.91
2019-06-08T15:54:14.565Z,27.50
2019-06-08T15:59:17.963Z,27.14
2019-06-08T16:04:21.353Z,26.84
2019-06-08T16:09:25.975Z,26.87
2019-06-08T16:14:30.937Z,27.28
2019-06-08T16:19:35.858Z,25.91
2019-06-08T16:24:39.358Z,25.25
2019-06-08T16:29:43.098Z,26.94
2019-06-08T16:34:46.496Z,26.13
2019-06-08T16:39:49.961Z,26.53
2019-06-08T16:44:53.649Z,26.01
2019-06-08T16:49:57.372Z,25.41
2019-06-08T16:55:00.793Z,25.57
2019-06-08T17:00:30.157Z,25.17
2019-06-08T17:05:10.621Z,26.31
2019-06-08T17:10:14.181Z,26.34
2019-06-08T17:15:18.234Z,25.39
2019-06-08T17:20:21.629Z,25.73
2019-06-08T17:25:25.026Z,27.20
2019-06-08T17:30:28.424Z,27.25
2019-06-08T17:35:33.387Z,26.11
2019-06-08T17:40:37.978Z,25.86
2019-06-08T17:45:42.765Z,26.24
2019-06-08T17:50:46.738Z,26.16
2019-06-08T17:55:50.134Z,25.42
2019-06-08T18:00:53.529Z,26.69
2019-06-08T18:05:58.020Z,26.56
2019-06-08T18:11:01.464Z,26.55
2019-06-08T18:16:05.073Z,27.23
2019-06-08T18:21:08.466Z,31.06
2019-06-08T18:26:11.865Z,32.83
2019-06-08T18:31:15.384Z,34.67
2019-06-08T18:36:19.209Z,37.52
2019-06-08T18:41:22.616Z,38.49
2019-06-08T18:46:27.231Z,40.06
2019-06-08T18:51:30.990Z,41.20
2019-06-08T18:56:36.057Z,42.44
2019-06-08T19:01:40.805Z,43.43
2019-06-08T19:06:48.806Z,44.14
2019-06-08T19:11:51.949Z,45.38
2019-06-08T19:16:57.943Z,46.29
2019-06-08T19:22:00.492Z,46.87
2019-06-08T19:27:03.885Z,46.69
2019-06-08T19:32:07.618Z,46.06
2019-06-08T19:37:11.012Z,47.06
2019-06-08T19:42:14.665Z,47.27
2019-06-08T19:47:18.081Z,48.12
2019-06-08T19:52:21.440Z,49.18
2019-06-08T19:57:24.928Z,50.14
2019-06-08T20:02:28.620Z,49.90
2019-06-08T20:07:32.065Z,50.19
2019-06-08T20:12:37.207Z,50.15
2019-06-08T20:17:41.657Z,50.13
2019-06-08T20:22:46.692Z,50.82
2019-06-08T20:27:51.655Z,50.70
2019-06-08T20:32:57.412Z,52.18
2019-06-08T20:38:00.252Z,52.83
2019-06-08T20:43:03.649Z,53.55
2019-06-08T20:48:07.049Z,54.10
2019-06-08T20:53:10.440Z,54.10
2019-06-08T20:58:13.832Z,53.96
2019-06-08T21:03:17.537Z,54.59
2019-06-08T21:08:20.997Z,54.91
2019-06-08T21:13:24.634Z,55.13
2019-06-08T21:18:28.052Z,54.92
2019-06-08T21:23:32.270Z,54.95
2019-06-08T21:28:35.754Z,55.24
2019-06-08T21:33:39.145Z,55.63
2019-06-08T21:38:42.634Z,56.19
2019-06-08T21:43:48.933Z,56.65
2019-06-08T21:48:53.019Z,56.37
2019-06-08T21:53:59.221Z,56.11
2019-06-08T21:59:02.447Z,56.39
2019-06-08T22:04:07.768Z,56.66
2019-06-08T22:09:11.982Z,56.52
2019-06-08T22:14:15.435Z,57.01
2019-06-08T22:19:18.855Z,56.98
2019-06-08T22:24:22.250Z,56.67
2019-06-08T22:29:27.563Z,57.09
2019-06-08T22:34:30.761Z,57.32
2019-06-08T22:39:34.158Z,57.05
2019-06-08T22:44:37.785Z,56.85
2019-06-08T22:49:41.459Z,57.08
2019-06-08T22:54:44.853Z,57.28
2019-06-08T22:59:48.261Z,57.54
2019-06-08T23:04:52.010Z,57.80
2019-06-08T23:09:59.348Z,57.70
2019-06-08T23:15:02.016Z,57.12
2019-06-08T23:20:08.706Z,56.65
2019-06-08T23:25:11.661Z,56.27
2019-06-08T23:30:18.263Z,56.27
2019-06-08T23:35:20.724Z,56.11
2019-06-08T23:40:24.112Z,56.07
2019-06-08T23:45:27.606Z,56.12
2019-06-08T23:50:31.009Z,56.14
2019-06-08T23:55:34.402Z,56.26
